Time;durP1;ratioP1;P1;durP2;ratioP2;P2;SDS_P1;SDS_P2;PMS_P1;PMS_P2;Temp;Humidity;BMP_temperature;BMP_pressure;BME280_temperature;BME280_humidity;BME280_pressure;Samples;Min_cycle;Max_cycle;Signal;HPM_P1;HPM_P2
2023/08/23 00:00:13;;;;;;;4.90;2.78;;;;;;;18.61;100.00;101707.22;6326884;28;20364;-71
2023/08/23 00:03:14;;;;;;;3.67;2.95;;;;;;;18.53;100.00;101702.47;6326773;28;20051;-69
2023/08/23 00:06:15;;;;;;;7.47;2.90;;;;;;;18.49;100.00;101707.16;6326500;28;20048;-71
2023/08/23 00:09:18;;;;;;;8.27;3.80;;;;;;;18.43;100.00;101704.06;6325922;28;20321;-71
2023/08/23 00:12:19;;;;;;;6.85;3.47;;;;;;;18.39;100.00;101703.41;6326503;28;20153;-71
2023/08/23 00:15:21;;;;;;;6.38;3.88;;;;;;;18.41;100.00;101704.19;6326560;28;20048;-70
2023/08/23 00:18:22;;;;;;;7.30;3.53;;;;;;;18.36;100.00;101706.31;6326283;28;20040;-70
2023/08/23 00:21:24;;;;;;;8.75;3.17;;;;;;;18.33;100.00;101711.00;6326336;28;20048;-69
2023/08/23 00:24:26;;;;;;;4.60;2.97;;;;;;;18.27;100.00;101717.59;6325995;28;20436;-70
2023/08/23 00:27:28;;;;;;;5.47;2.83;;;;;;;18.25;100.00;101709.72;6326451;28;20044;-70
2023/08/23 00:30:29;;;;;;;3.95;2.45;;;;;;;18.18;100.00;101712.94;6326089;28;20052;-70
2023/08/23 00:33:31;;;;;;;4.40;2.90;;;;;;;18.18;100.00;101713.78;6326107;28;20321;-71
2023/08/23 00:36:32;;;;;;;4.47;2.65;;;;;;;18.14;100.00;101714.09;6323997;28;20070;-69
2023/08/23 00:39:35;;;;;;;6.63;2.95;;;;;;;18.12;100.00;101711.56;6317467;28;20464;-69
2023/08/23 00:42:36;;;;;;;5.30;3.15;;;;;;;18.11;100.00;101707.16;6312950;28;20048;-69
2023/08/23 00:45:39;;;;;;;6.22;3.05;;;;;;;18.02;100.00;101702.50;6317039;28;20048;-69
2023/08/23 00:48:41;;;;;;;4.57;3.08;;;;;;;17.91;100.00;101697.94;6325530;28;20036;-70
2023/08/23 00:51:43;;;;;;;4.82;2.70;;;;;;;17.89;100.00;101701.63;6325616;28;20056;-69
2023/08/23 00:54:46;;;;;;;5.95;3.42;;;;;;;17.90;100.00;101706.03;6325583;28;20075;-69
2023/08/23 00:57:47;;;;;;;4.50;2.85;;;;;;;17.87;100.00;101698.25;6325497;28;20462;-69
2023/08/23 01:00:49;;;;;;;4.72;2.75;;;;;;;17.81;100.00;101694.22;6325710;28;20150;-69
2023/08/23 01:03:51;;;;;;;5.88;3.30;;;;;;;17.81;100.00;101698.69;6325433;28;20055;-68
2023/08/23 01:06:58;;;;;;;4.18;2.67;;;;;;;17.82;100.00;101697.72;6325571;28;20505;-68
2023/08/23 01:10:09;;;;;;;3.20;2.40;;;;;;;17.80;100.00;101696.94;6325482;28;20043;-69
2023/08/23 01:13:21;;;;;;;3.10;2.45;;;;;;;17.75;100.00;101697.25;6325631;28;20048;-68
2023/08/23 01:16:24;;;;;;;4.80;3.00;;;;;;;17.67;100.00;101700.44;6325100;28;20446;-69
2023/08/23 01:19:38;;;;;;;3.47;2.38;;;;;;;17.70;100.00;101697.53;6325174;28;20044;-68
2023/08/23 01:22:45;;;;;;;3.20;2.80;;;;;;;17.61;100.00;101699.97;6325357;28;20634;-69
2023/08/23 01:25:50;;;;;;;4.65;2.55;;;;;;;17.58;100.00;101698.41;6325138;28;20048;-69
2023/08/23 01:28:51;;;;;;;2.92;2.53;;;;;;;17.62;100.00;101693.69;6325252;28;20044;-69
2023/08/23 01:31:55;;;;;;;3.00;2.60;;;;;;;17.58;100.00;101690.44;6325368;28;20055;-69
2023/08/23 01:35:03;;;;;;;3.70;2.97;;;;;;;17.49;100.00;101693.72;6324753;28;20359;-69
2023/08/23 01:38:05;;;;;;;4.80;2.63;;;;;;;17.35;100.00;101697.28;6324975;28;20071;-69
2023/08/23 01:41:08;;;;;;;5.97;3.10;;;;;;;17.30;100.00;101693.22;6324903;28;20488;-70
2023/08/23 01:44:09;;;;;;;4.97;2.83;;;;;;;17.31;100.00;101698.44;6324950;28;20052;-69
2023/08/23 01:47:10;;;;;;;3.60;2.38;;;;;;;17.38;100.00;101709.50;6325103;28;20056;-69
2023/08/23 01:50:12;;;;;;;4.35;2.65;;;;;;;17.43;100.00;101696.75;6324765;28;20048;-69
2023/08/23 01:53:13;;;;;;;5.82;3.05;;;;;;;17.34;100.00;101694.72;6325114;28;20360;-69
2023/08/23 01:56:16;;;;;;;4.43;2.88;;;;;;;17.30;100.00;101712.66;6324496;28;20067;-69
2023/08/23 01:59:17;;;;;;;5.00;3.03;;;;;;;17.23;100.00;101706.06;6324894;28;20044;-69
2023/08/23 02:02:19;;;;;;;4.05;2.90;;;;;;;17.21;100.00;101703.50;6324794;28;20053;-69
2023/08/23 02:05:20;;;;;;;6.35;2.72;;;;;;;17.24;100.00;101689.16;6324522;28;20052;-69
2023/08/23 02:08:22;;;;;;;5.60;2.95;;;;;;;17.21;100.00;101694.66;6323961;28;20048;-69
2023/08/23 02:11:24;;;;;;;5.28;2.63;;;;;;;17.12;100.00;101700.59;6324711;28;20432;-69
2023/08/23 02:14:26;;;;;;;12.07;2.90;;;;;;;17.07;100.00;101695.56;6324661;28;20044;-69
2023/08/23 02:17:28;;;;;;;4.20;2.90;;;;;;;17.02;100.00;101695.03;6324707;28;20051;-69
2023/08/23 02:20:29;;;;;;;3.80;3.03;;;;;;;17.04;100.00;101690.50;6324440;28;20055;-69
2023/08/23 02:23:30;;;;;;;4.28;2.80;;;;;;;17.03;100.00;101695.88;6324637;28;20063;-69
2023/08/23 02:26:35;;;;;;;7.72;2.70;;;;;;;17.04;100.00;101697.59;6324268;28;20352;-69
2023/08/23 02:29:36;;;;;;;5.32;3.35;;;;;;;17.04;100.00;101693.16;6324683;28;20075;-69
2023/08/23 02:32:37;;;;;;;4.80;3.00;;;;;;;16.99;100.00;101696.09;6328766;28;20051;-69
2023/08/23 02:35:41;;;;;;;5.53;3.10;;;;;;;16.96;100.00;101693.63;6328127;28;20040;-69
2023/08/23 02:38:42;;;;;;;5.13;3.15;;;;;;;16.96;100.00;101692.78;6328565;28;20420;-69
2023/08/23 02:41:45;;;;;;;6.82;3.72;;;;;;;16.98;100.00;101693.53;6313241;28;20482;-69
2023/08/23 02:44:46;;;;;;;8.77;2.67;;;;;;;17.00;100.00;101683.66;6319976;28;20048;-69
2023/08/23 02:47:47;;;;;;;4.00;2.70;;;;;;;16.99;100.00;101695.25;6328899;28;20056;-69
2023/08/23 02:50:49;;;;;;;5.10;3.70;;;;;;;16.94;100.00;101702.63;6320087;28;20052;-70
2023/08/23 02:53:50;;;;;;;6.93;3.83;;;;;;;16.85;100.00;101698.81;6328625;28;20403;-69
2023/08/23 02:56:54;;;;;;;6.32;3.60;;;;;;;16.87;100.00;101691.56;6328257;28;20075;-69
2023/08/23 02:59:55;;;;;;;7.63;3.97;;;;;;;16.91;100.00;101687.78;6327932;28;20468;-69
2023/08/23 03:02:56;;;;;;;6.32;3.58;;;;;;;16.94;100.00;101684.94;6328418;28;20056;-69
2023/08/23 03:05:58;;;;;;;5.88;3.95;;;;;;;16.91;100.00;101684.28;6328134;28;20055;-69
2023/08/23 03:09:00;;;;;;;6.00;3.97;;;;;;;16.87;100.00;101688.06;6328314;28;20048;-69
2023/08/23 03:12:02;;;;;;;7.45;4.20;;;;;;;16.79;100.00;101691.22;6328004;28;20052;-69
2023/08/23 03:15:04;;;;;;;6.25;3.22;;;;;;;16.82;100.00;101688.38;6327721;28;20337;-69
2023/08/23 03:18:06;;;;;;;6.53;4.65;;;;;;;16.83;100.00;101679.44;6327985;28;20071;-69
2023/08/23 03:21:07;;;;;;;7.82;4.30;;;;;;;16.84;100.00;101675.84;6328181;28;20461;-69
2023/08/23 03:24:09;;;;;;;7.15;4.53;;;;;;;16.83;100.00;101683.91;6327797;28;20052;-69
2023/08/23 03:27:11;;;;;;;6.68;4.63;;;;;;;16.81;100.00;101685.81;6327616;28;20051;-69
2023/08/23 03:30:13;;;;;;;9.15;4.53;;;;;;;16.84;100.00;101685.59;6327758;28;20056;-69
2023/08/23 03:33:15;;;;;;;7.68;5.20;;;;;;;16.82;100.00;101679.56;6327533;28;20059;-69
2023/08/23 03:36:17;;;;;;;7.82;4.95;;;;;;;16.81;100.00;101684.00;6327502;28;20055;-69
2023/08/23 03:39:18;;;;;;;8.55;5.15;;;;;;;16.71;100.00;101680.19;6327355;28;20044;-69
2023/08/23 03:42:21;;;;;;;11.45;4.82;;;;;;;16.72;100.00;101669.53;6327536;28;20059;-69
2023/08/23 03:45:22;;;;;;;9.57;6.00;;;;;;;16.72;100.00;101668.69;6327117;28;20051;-69
2023/08/23 03:48:24;;;;;;;9.07;5.13;;;;;;;16.73;100.00;101668.56;6327073;28;20359;-69
2023/08/23 03:51:25;;;;;;;7.57;5.07;;;;;;;16.70;100.00;101682.00;6326965;28;20052;-69
2023/08/23 03:54:26;;;;;;;7.82;5.22;;;;;;;16.78;100.00;101678.03;6327024;28;20048;-69
2023/08/23 03:57:29;;;;;;;5.97;4.00;;;;;;;16.80;100.00;101673.47;6327125;28;20055;-69
2023/08/23 04:00:30;;;;;;;6.53;4.85;;;;;;;16.80;100.00;101678.78;6326828;28;20463;-69
2023/08/23 04:03:32;;;;;;;13.18;6.28;;;;;;;16.69;100.00;101674.16;6327153;28;20059;-69
2023/08/23 04:06:33;;;;;;;7.07;4.35;;;;;;;16.65;100.00;101684.09;6326454;28;20048;-69
2023/08/23 04:09:34;;;;;;;8.73;4.68;;;;;;;16.69;100.00;101679.44;6326679;28;20365;-69
2023/08/23 04:12:37;;;;;;;6.65;4.72;;;;;;;16.79;100.00;101679.75;6326599;28;20048;-69
2023/08/23 04:15:41;;;;;;;9.90;5.07;;;;;;;16.81;100.00;101676.06;6326502;28;20055;-69
2023/08/23 04:18:43;;;;;;;8.05;5.28;;;;;;;16.85;100.00;101676.69;6326530;28;20429;-69
2023/08/23 04:21:46;;;;;;;11.23;5.47;;;;;;;16.84;100.00;101672.31;6325962;28;20051;-69
2023/08/23 04:24:49;;;;;;;7.55;4.55;;;;;;;16.86;100.00;101675.75;6325633;28;20052;-70
2023/08/23 04:27:52;;;;;;;7.45;5.47;;;;;;;16.84;100.00;101674.97;6312452;28;20052;-69
2023/08/23 04:30:53;;;;;;;11.85;6.20;;;;;;;16.88;100.00;101682.66;6314693;28;20040;-69
2023/08/23 04:33:55;;;;;;;7.55;4.95;;;;;;;16.91;100.00;101677.16;6309093;28;20052;-67
2023/08/23 04:36:56;;;;;;;7.75;5.43;;;;;;;16.93;100.00;101680.53;6312124;28;20428;-69
2023/08/23 04:39:57;;;;;;;8.90;5.22;;;;;;;16.90;100.00;101671.94;6318075;28;20040;-68
2023/08/23 04:43:00;;;;;;;9.32;6.10;;;;;;;16.85;100.00;101687.31;6320619;28;20048;-69
2023/08/23 04:46:02;;;;;;;7.97;5.32;;;;;;;16.87;100.00;101688.91;6312669;28;20059;-69
2023/08/23 04:49:03;;;;;;;9.80;6.13;;;;;;;16.85;100.00;101685.53;6304447;28;20048;-69
2023/08/23 04:52:05;;;;;;;9.88;5.55;;;;;;;16.86;100.00;101689.03;6300654;28;20449;-69
2023/08/23 04:55:07;;;;;;;14.55;6.75;;;;;;;16.86;100.00;101689.03;6300032;28;20055;-69
2023/08/23 04:58:10;;;;;;;9.45;6.13;;;;;;;16.89;100.00;101680.84;6300537;28;20441;-69
2023/08/23 05:01:12;;;;;;;9.98;6.80;;;;;;;16.88;100.00;101674.69;6300538;28;20056;-69
2023/08/23 05:04:13;;;;;;;12.18;6.32;;;;;;;16.89;100.00;101678.19;6300253;28;20048;-69
2023/08/23 05:07:14;;;;;;;12.73;6.97;;;;;;;16.83;100.00;101673.28;6300451;28;20059;-69
2023/08/23 05:10:16;;;;;;;10.70;6.00;;;;;;;16.80;100.00;101674.31;6300321;28;20041;-69
2023/08/23 05:13:19;;;;;;;10.75;6.40;;;;;;;16.83;100.00;101668.81;6300176;28;20048;-69
2023/08/23 05:16:20;;;;;;;11.05;6.60;;;;;;;16.82;100.00;101680.41;6300030;28;20444;-69
2023/08/23 05:19:22;;;;;;;10.30;5.32;;;;;;;16.86;100.00;101686.38;6300103;28;20044;-69
2023/08/23 05:22:23;;;;;;;11.30;6.90;;;;;;;16.86;100.00;101694.34;6300220;28;20053;-69
2023/08/23 05:25:24;;;;;;;9.95;6.80;;;;;;;16.94;100.00;101702.63;6299857;28;20056;-69
2023/08/23 05:28:27;;;;;;;11.93;7.07;;;;;;;16.95;100.00;101702.56;6299988;28;20467;-69
2023/08/23 05:31:29;;;;;;;10.40;6.72;;;;;;;16.99;100.00;101704.06;6299904;28;20052;-69
2023/08/23 05:34:30;;;;;;;8.25;5.05;;;;;;;17.01;100.00;101705.75;6299916;28;20319;-69
2023/08/23 05:37:31;;;;;;;12.85;7.43;;;;;;;17.03;100.00;101699.38;6300002;28;20147;-69
2023/08/23 05:40:33;;;;;;;16.02;9.63;;;;;;;17.00;100.00;101694.28;6299756;28;20056;-69
2023/08/23 05:43:35;;;;;;;14.10;8.48;;;;;;;17.06;100.00;101693.03;6300111;28;20052;-69
2023/08/23 05:46:37;;;;;;;18.00;8.98;;;;;;;17.10;100.00;101702.50;6299456;28;20055;-69
2023/08/23 05:49:38;;;;;;;14.13;9.25;;;;;;;17.13;100.00;101708.47;6299949;28;20040;-69
2023/08/23 05:52:40;;;;;;;16.23;9.27;;;;;;;17.21;100.00;101707.94;6299936;28;20049;-73
2023/08/23 05:55:41;;;;;;;15.45;9.23;;;;;;;17.23;100.00;101708.72;6299769;28;20055;-72
2023/08/23 05:58:44;;;;;;;15.98;8.15;;;;;;;17.28;100.00;101705.75;6299756;28;20432;-72
2023/08/23 06:01:45;;;;;;;17.45;9.43;;;;;;;17.39;100.00;101714.69;6310376;28;20044;-72
2023/08/23 06:04:47;;;;;;;15.27;9.05;;;;;;;17.44;100.00;101703.75;6316007;28;20060;-72
2023/08/23 06:07:48;;;;;;;13.13;6.18;;;;;;;17.54;100.00;101712.84;6323453;28;20063;-71
2023/08/23 06:10:50;;;;;;;10.90;6.18;;;;;;;17.62;100.00;101717.63;6321031;28;20051;-71
2023/08/23 06:13:53;;;;;;;16.50;6.38;;;;;;;17.70;100.00;101724.13;6329444;28;20047;-74
2023/08/23 06:16:55;;;;;;;24.02;9.40;;;;;;;17.75;100.00;101724.69;6329199;28;20048;-72
2023/08/23 06:19:56;;;;;;;15.43;8.45;;;;;;;17.72;100.00;101737.34;6329253;28;20040;-72
2023/08/23 06:22:57;;;;;;;15.60;9.13;;;;;;;17.78;100.00;101726.31;6328957;28;20444;-74
2023/08/23 06:25:59;;;;;;;20.05;9.77;;;;;;;17.81;100.00;101728.78;6328312;28;20050;-74
2023/08/23 06:29:03;;;;;;;15.88;8.48;;;;;;;17.86;100.00;101725.81;6324363;28;20036;-73
2023/08/23 06:32:05;;;;;;;13.50;7.20;;;;;;;17.92;100.00;101728.03;6320298;28;20048;-74
2023/08/23 06:35:07;;;;;;;18.42;9.57;;;;;;;17.91;100.00;101729.00;6320273;28;20055;-74
2023/08/23 06:38:08;;;;;;;15.80;8.05;;;;;;;17.98;100.00;101740.91;6328936;28;20048;-74
2023/08/23 06:41:10;;;;;;;17.90;9.35;;;;;;;18.00;100.00;101742.50;6328941;28;20040;-74
2023/08/23 06:44:12;;;;;;;20.88;9.02;;;;;;;18.10;100.00;101740.06;6328842;28;20055;-74
2023/08/23 06:47:14;;;;;;;14.45;7.45;;;;;;;18.15;100.00;101727.28;6325457;28;20455;-72
2023/08/23 06:50:15;;;;;;;10.27;6.80;;;;;;;18.24;100.00;101723.13;6322531;28;20040;-72
2023/08/23 06:53:16;;;;;;;15.32;7.15;;;;;;;18.30;100.00;101722.69;6316902;28;20047;-72
2023/08/23 06:56:18;;;;;;;19.08;9.88;;;;;;;18.35;100.00;101725.03;6318156;28;20052;-73
2023/08/23 06:59:21;;;;;;;18.13;8.70;;;;;;;18.33;100.00;101722.50;6304926;28;20440;-73
2023/08/23 07:02:22;;;;;;;15.23;9.88;;;;;;;18.31;100.00;101718.25;6303339;28;20059;-73
2023/08/23 07:05:24;;;;;;;15.43;8.27;;;;;;;18.32;100.00;101719.94;6302856;28;20044;-73
2023/08/23 07:08:25;;;;;;;13.27;6.72;;;;;;;18.37;100.00;101726.63;6303188;28;20440;-73
2023/08/23 07:11:26;;;;;;;20.52;8.82;;;;;;;18.44;100.00;101730.59;6303016;28;20041;-72
2023/08/23 07:14:29;;;;;;;16.40;8.35;;;;;;;18.45;100.00;101720.78;6316864;28;20344;-72
2023/08/23 07:17:33;;;;;;;18.48;9.43;;;;;;;18.50;100.00;101729.28;6318754;28;20048;-72
2023/08/23 07:20:34;;;;;;;17.67;8.10;;;;;;;18.52;100.00;101736.19;6310944;28;20454;-73
2023/08/23 07:23:36;;;;;;;16.08;8.30;;;;;;;18.57;100.00;101725.22;6313788;28;20051;-72
2023/08/23 07:26:37;;;;;;;13.65;6.32;;;;;;;18.59;100.00;101720.66;6313004;28;20052;-72
2023/08/23 07:29:40;;;;;;;8.88;5.70;;;;;;;18.62;100.00;101723.09;6313645;28;20352;-72
2023/08/23 07:32:41;;;;;;;11.40;5.22;;;;;;;18.68;100.00;101729.78;6313060;28;20055;-74
2023/08/23 07:35:43;;;;;;;12.00;7.25;;;;;;;18.69;100.00;101732.38;6320155;28;20048;-74
2023/08/23 07:38:44;;;;;;;9.60;5.75;;;;;;;18.71;100.00;101734.91;6327220;28;20052;-74
2023/08/23 07:41:46;;;;;;;12.52;5.53;;;;;;;18.69;100.00;101735.03;6327305;28;20048;-73
2023/08/23 07:44:49;;;;;;;9.15;5.13;;;;;;;18.74;100.00;101737.34;6326711;28;20070;-73
2023/08/23 07:47:50;;;;;;;13.52;5.93;;;;;;;18.79;100.00;101731.69;6313161;28;20044;-73
2023/08/23 07:50:52;;;;;;;16.30;6.30;;;;;;;18.85;100.00;101747.22;6321044;28;20051;-73
2023/08/23 07:53:54;;;;;;;20.88;7.32;;;;;;;18.84;100.00;101745.53;6327023;28;20064;-74
2023/08/23 07:56:55;;;;;;;16.30;5.95;;;;;;;18.92;100.00;101743.19;6326681;28;20059;-73
2023/08/23 07:59:59;;;;;;;12.50;5.68;;;;;;;19.03;100.00;101743.25;6326415;28;20122;-73
2023/08/23 08:03:02;;;;;;;12.82;6.97;;;;;;;19.06;100.00;101751.00;6315155;28;20051;-73
2023/08/23 08:06:03;;;;;;;12.75;6.72;;;;;;;19.12;100.00;101749.69;6319415;28;20122;-73
2023/08/23 08:09:05;;;;;;;15.88;8.07;;;;;;;19.12;100.00;101758.56;6318017;28;20052;-75
2023/08/23 08:12:07;;;;;;;14.07;8.38;;;;;;;19.14;100.00;101751.31;6326455;28;20055;-74
2023/08/23 08:15:10;;;;;;;14.93;6.10;;;;;;;19.17;100.00;101759.09;6316694;28;20056;-73
2023/08/23 08:18:12;;;;;;;12.38;5.78;;;;;;;19.20;100.00;101755.31;6323662;28;20127;-73
2023/08/23 08:21:13;;;;;;;18.05;7.80;;;;;;;19.25;100.00;101763.81;6315743;28;20440;-73
2023/08/23 08:24:14;;;;;;;21.15;8.45;;;;;;;19.27;100.00;101767.25;6319683;28;20048;-73
2023/08/23 08:27:16;;;;;;;16.73;6.63;;;;;;;19.32;100.00;101766.91;6323343;28;20366;-72
2023/08/23 08:30:19;;;;;;;11.48;6.05;;;;;;;19.38;100.00;101767.28;6325665;28;20055;-72
2023/08/23 08:33:21;;;;;;;11.23;5.57;;;;;;;19.47;100.00;101771.94;6323037;28;20055;-73
2023/08/23 08:36:22;;;;;;;8.95;5.03;;;;;;;19.51;100.00;101770.75;6315712;28;20044;-73
2023/08/23 08:39:23;;;;;;;9.70;5.30;;;;;;;19.51;100.00;101769.91;6316412;28;20059;-73
2023/08/23 08:42:26;;;;;;;14.73;5.32;;;;;;;19.54;100.00;101772.34;6322633;28;20044;-75
2023/08/23 08:45:28;;;;;;;11.35;5.88;;;;;;;19.55;100.00;101773.19;6318716;28;20051;-73
2023/08/23 08:48:30;;;;;;;9.20;5.63;;;;;;;19.56;100.00;101769.56;6321593;28;20059;-75
2023/08/23 08:51:36;;;;;;;13.50;7.32;;;;;;;19.62;100.00;101774.44;6316974;28;20455;-73
2023/08/23 08:54:38;;;;;;;21.27;6.05;;;;;;;19.71;100.00;101774.63;6316832;28;20075;-75
2023/08/23 08:57:40;;;;;;;10.35;6.65;;;;;;;19.73;100.00;101769.16;6325576;28;20066;-75
2023/08/23 09:00:43;;;;;;;8.35;4.95;;;;;;;19.77;100.00;101775.97;6325557;28;20051;-75
2023/08/23 09:03:45;;;;;;;11.13;6.00;;;;;;;19.79;100.00;101767.84;6325607;28;20048;-75
2023/08/23 09:06:48;;;;;;;12.40;5.55;;;;;;;19.86;100.00;101769.94;6316545;28;20044;-75
2023/08/23 09:09:49;;;;;;;8.05;4.75;;;;;;;19.90;100.00;101768.75;6325442;28;20055;-74
2023/08/23 09:12:51;;;;;;;9.77;5.70;;;;;;;19.99;100.00;101768.03;6325201;28;20044;-75
2023/08/23 09:15:55;;;;;;;11.10;4.82;;;;;;;20.08;100.00;101765.63;6325378;28;20056;-74
2023/08/23 09:18:57;;;;;;;9.38;5.00;;;;;;;20.22;100.00;101760.91;6324392;28;20051;-75
2023/08/23 09:21:58;;;;;;;13.18;4.07;;;;;;;20.34;100.00;101768.94;6316620;28;20044;-74
2023/08/23 09:25:00;;;;;;;10.18;4.88;;;;;;;20.43;100.00;101762.88;6316205;28;20455;-75
2023/08/23 09:28:02;;;;;;;13.60;6.35;;;;;;;20.53;100.00;101766.56;6325245;28;20044;-74
2023/08/23 09:31:05;;;;;;;7.93;4.40;;;;;;;20.59;100.00;101763.41;6324957;28;20054;-74
2023/08/23 09:34:12;;;;;;;7.07;2.90;;;;;;;20.60;100.00;101769.59;6316628;28;20048;-75
2023/08/23 09:37:13;;;;;;;9.55;3.10;;;;;;;20.48;100.00;101769.59;6324962;28;20048;-75
2023/08/23 09:40:19;;;;;;;4.78;2.80;;;;;;;20.34;100.00;101771.59;6327222;28;20490;-75
2023/08/23 09:43:23;;;;;;;5.43;2.88;;;;;;;20.25;100.00;101775.84;6330451;28;20051;-75
2023/08/23 09:46:27;;;;;;;6.50;3.03;;;;;;;20.26;100.00;101764.22;6330278;28;20055;-79
2023/08/23 09:49:32;;;;;;;3.58;2.42;;;;;;;20.28;100.00;101756.91;6322522;28;20047;-75
2023/08/23 09:52:35;;;;;;;2.83;1.92;;;;;;;20.35;100.00;101744.81;6327546;28;20213;-75
2023/08/23 09:55:38;;;;;;;2.30;1.88;;;;;;;20.40;100.00;101749.78;6327339;28;20089;-74
2023/08/23 09:58:40;;;;;;;6.32;2.40;;;;;;;20.43;100.00;101750.34;6327215;28;20055;-74
2023/08/23 10:01:44;;;;;;;5.10;2.05;;;;;;;20.52;100.00;101744.31;6327288;28;20044;-75
2023/08/23 10:04:46;;;;;;;6.07;2.60;;;;;;;20.67;100.00;101750.28;6326997;28;20450;-75
2023/08/23 10:07:47;;;;;;;2.83;1.95;;;;;;;20.74;100.00;101739.94;6329474;28;20044;-74
2023/08/23 10:10:50;;;;;;;8.25;2.35;;;;;;;20.77;100.00;101742.38;6329388;28;20052;-75
2023/08/23 10:13:53;;;;;;;3.50;2.45;;;;;;;20.93;100.00;101733.94;6329598;28;20051;-75
2023/08/23 10:16:56;;;;;;;3.55;2.60;;;;;;;21.10;100.00;101736.09;6329191;28;20055;-75
2023/08/23 10:19:58;;;;;;;7.25;2.55;;;;;;;21.20;100.00;101733.53;6329423;28;20051;-75
2023/08/23 10:22:59;;;;;;;4.03;2.40;;;;;;;21.22;100.00;101732.44;6326766;28;20044;-75
2023/08/23 10:26:02;;;;;;;9.27;3.78;;;;;;;21.30;100.00;101739.78;6320584;28;20052;-75
2023/08/23 10:29:10;;;;;;;9.45;3.58;;;;;;;21.39;100.00;101728.41;6320570;28;20044;-72
2023/08/23 10:32:13;;;;;;;4.57;2.90;;;;;;;21.41;100.00;101725.59;6328887;28;20584;-74
2023/08/23 10:35:23;;;;;;;5.43;3.38;;;;;;;21.38;100.00;101721.31;6328663;28;20052;-75
2023/08/23 10:38:27;;;;;;;4.22;2.80;;;;;;;21.35;100.00;101720.72;6320385;28;20051;-74
2023/08/23 10:41:28;;;;;;;5.25;3.42;;;;;;;21.35;100.00;101723.41;6328725;28;20051;-75
2023/08/23 10:44:30;;;;;;;4.88;2.90;;;;;;;21.41;100.00;101717.56;6328533;28;20059;-75
2023/08/23 10:47:36;;;;;;;4.53;2.40;;;;;;;21.54;100.00;101712.88;6328841;28;20055;-75
2023/08/23 10:50:38;;;;;;;4.35;2.30;;;;;;;21.58;100.00;101713.47;6328129;28;20051;-73
2023/08/23 10:53:41;;;;;;;3.22;1.70;;;;;;;21.63;100.00;101720.13;6328361;28;20116;-73
2023/08/23 10:56:42;;;;;;;9.13;2.72;;;;;;;;;;6328224;28;20105;-75
2023/08/23 10:59:44;;;;;;;3.53;1.98;;;;;;;21.78;100.00;101712.63;6307310;28;20049;-73
2023/08/23 11:02:47;;;;;;;3.00;2.33;;;;;;;21.72;100.00;101713.16;6314432;28;20436;-74
2023/08/23 11:05:49;;;;;;;6.35;1.70;;;;;;;21.85;100.00;101712.97;6328325;28;20055;-74
2023/08/23 11:08:52;;;;;;;3.88;1.60;;;;;;;21.90;100.00;101700.88;6319737;28;20452;-73
2023/08/23 11:11:54;;;;;;;6.03;2.70;;;;;;;22.02;100.00;101707.81;6328441;28;20044;-76
2023/08/23 11:14:56;;;;;;;5.07;2.00;;;;;;;22.11;100.00;101698.16;6327946;28;20059;-74
2023/08/23 11:17:59;;;;;;;2.42;1.70;;;;;;;22.11;100.00;101706.16;6327943;28;20142;-74
2023/08/23 11:21:00;;;;;;;5.38;1.83;;;;;;;22.21;100.00;101700.91;6324480;28;20040;-73
2023/08/23 11:24:03;;;;;;;3.22;1.90;;;;;;;22.36;100.00;101696.88;6319176;28;20048;-73
2023/08/23 11:27:11;;;;;;;2.58;1.60;;;;;;;22.50;100.00;101688.47;6319092;28;20520;-74
2023/08/23 11:30:13;;;;;;;3.70;1.65;;;;;;;22.74;100.00;101693.47;6327881;28;20044;-73
2023/08/23 11:33:16;;;;;;;2.25;1.23;;;;;;;23.03;100.00;101688.19;6321843;28;20056;-73
2023/08/23 11:36:18;;;;;;;3.50;1.90;;;;;;;23.12;100.00;101693.69;6317679;28;20052;-73
2023/08/23 11:39:20;;;;;;;1.65;1.45;;;;;;;23.21;100.00;101699.06;6313736;28;20044;-73
2023/08/23 11:42:21;;;;;;;1.83;1.38;;;;;;;23.64;100.00;101696.91;6316427;28;20321;-73
2023/08/23 11:45:23;;;;;;;1.45;1.10;;;;;;;23.61;100.00;101700.72;6314722;28;20356;-71
2023/08/23 11:48:26;;;;;;;1.77;1.20;;;;;;;23.73;100.00;101699.63;6319474;28;20052;-70
2023/08/23 11:51:37;;;;;;;1.20;1.10;;;;;;;23.40;100.00;101700.91;6319845;28;20043;-72
2023/08/23 11:54:42;;;;;;;2.08;1.38;;;;;;;23.09;100.00;101694.81;6336361;22;20052;-73
2023/08/23 11:57:44;;;;;;;1.30;1.13;;;;;;;22.99;100.00;101699.34;6316223;28;20466;-72
2023/08/23 12:00:47;;;;;;;2.50;1.40;;;;;;;23.22;100.00;101698.09;6315329;28;20071;-73
2023/08/23 12:03:50;;;;;;;4.85;1.40;;;;;;;23.50;100.00;101690.16;6321601;28;20051;-73
2023/08/23 12:06:52;;;;;;;2.55;1.10;;;;;;;23.24;100.00;101698.78;6311268;28;20108;-73
2023/08/23 12:09:54;;;;;;;1.63;0.95;;;;;;;23.28;100.00;101704.72;6320448;28;20156;-72
2023/08/23 12:12:55;;;;;;;1.92;0.85;;;;;;;23.55;100.00;101701.31;6326065;28;20055;-72
2023/08/23 12:15:56;;;;;;;4.07;1.15;;;;;;;23.89;100.00;101690.09;6317915;28;20040;-75
2023/08/23 12:18:59;;;;;;;1.67;0.77;;;;;;;24.14;100.00;101694.84;6319192;28;20368;-72
2023/08/23 12:22:01;;;;;;;1.60;1.00;;;;;;;24.39;100.00;101697.88;6315575;28;20641;-72
2023/08/23 12:25:04;;;;;;;1.10;1.00;;;;;;;24.55;100.00;101696.22;6324545;28;20048;-72
2023/08/23 12:28:06;;;;;;;1.90;1.25;;;;;;;24.87;98.07;101688.69;6321088;28;20051;-72
2023/08/23 12:31:07;;;;;;;0.80;0.77;;;;;;;25.12;100.00;101695.16;6321933;28;20044;-75
2023/08/23 12:34:10;;;;;;;3.03;1.25;;;;;;;25.16;91.85;101683.94;6316696;28;20347;-76
2023/08/23 12:37:11;;;;;;;1.17;0.80;;;;;;;25.25;77.90;101683.06;6318944;28;20109;-76
2023/08/23 12:40:13;;;;;;;1.98;0.98;;;;;;;25.39;70.84;101667.31;6322323;28;20051;-73
2023/08/23 12:43:14;;;;;;;1.40;1.00;;;;;;;25.53;66.54;101673.00;6317391;28;20048;-73
2023/08/23 12:46:16;;;;;;;1.20;0.90;;;;;;;25.42;68.32;101665.16;6325771;28;20454;-73
2023/08/23 12:49:18;;;;;;;1.80;1.27;;;;;;;25.42;66.71;101664.34;6326167;28;20051;-73
2023/08/23 12:52:20;;;;;;;1.30;0.93;;;;;;;25.57;68.12;101670.81;6319503;28;20052;-72
2023/08/23 12:55:22;;;;;;;0.95;0.85;;;;;;;25.68;65.30;101661.66;6320978;28;20356;-72
2023/08/23 12:58:23;;;;;;;1.42;0.85;;;;;;;25.91;60.77;101667.41;6323009;28;20455;-73
2023/08/23 13:01:25;;;;;;;1.50;0.80;;;;;;;26.08;60.12;101662.94;6319055;28;20055;-72
2023/08/23 13:04:27;;;;;;;1.17;0.63;;;;;;;26.14;62.99;101652.34;6325114;28;20048;-71
2023/08/23 13:07:29;;;;;;;1.80;0.75;;;;;;;26.20;64.14;101645.47;6318397;28;20059;-71
2023/08/23 13:10:30;;;;;;;1.42;0.80;;;;;;;26.56;64.29;101652.34;6319928;28;20440;-72
2023/08/23 13:13:32;;;;;;;0.95;0.70;;;;;;;26.55;60.49;101639.91;6317937;28;20404;-71
2023/08/23 13:16:33;;;;;;;0.40;0.40;;;;;;;26.42;58.31;101644.88;6315217;28;20352;-71
2023/08/23 13:19:36;;;;;;;1.05;0.55;;;;;;;26.43;55.32;101637.63;6324217;28;20044;-71
2023/08/23 13:22:37;;;;;;;1.10;0.68;;;;;;;26.52;54.14;101636.69;6318402;28;20432;-72
2023/08/23 13:25:39;;;;;;;1.25;0.55;;;;;;;26.37;55.87;101639.13;6324528;28;20048;-72
2023/08/23 13:28:40;;;;;;;4.32;0.82;;;;;;;26.45;56.89;101631.13;6315113;28;20052;-72
2023/08/23 13:31:44;;;;;;;1.38;0.70;;;;;;;26.54;57.51;101627.44;6315553;28;20545;-71
2023/08/23 13:34:47;;;;;;;2.40;0.70;;;;;;;26.65;57.24;101633.50;6318281;28;20130;-71
2023/08/23 13:37:49;;;;;;;0.60;0.60;;;;;;;26.24;58.38;101636.91;6307291;28;20051;-71
2023/08/23 13:40:50;;;;;;;2.80;0.80;;;;;;;26.31;58.89;101634.41;6313879;28;20059;-71
2023/08/23 13:43:52;;;;;;;2.00;0.80;;;;;;;26.39;60.67;101628.19;6314805;28;20460;-71
2023/08/23 13:46:53;;;;;;;1.92;0.88;;;;;;;26.74;57.47;101630.66;6299585;28;20059;-71
2023/08/23 13:49:56;;;;;;;3.10;1.30;;;;;;;26.85;56.59;101624.13;6299903;28;20052;-71
2023/08/23 13:52:57;;;;;;;0.47;0.47;;;;;;;27.10;59.72;101619.59;6319058;28;20043;-71
2023/08/23 13:55:58;;;;;;;1.55;0.70;;;;;;;27.18;56.70;101627.69;6314002;28;20056;-71